createdAt,value
2022-12-17T00:00:51.282Z,1018.17
2022-12-17T00:01:50.797Z,1018.20
2022-12-17T00:02:51.654Z,1018.29
2022-12-17T00:03:51.386Z,1018.27
2022-12-17T00:04:50.940Z,1018.29
2022-12-17T00:05:51.300Z,1018.29
2022-12-17T00:06:51.176Z,1018.28
2022-12-17T00:07:49.756Z,1018.29
2022-12-17T00:08:49.806Z,1018.32
2022-12-17T00:09:51.166Z,1018.30
2022-12-17T00:10:50.626Z,1018.32
2022-12-17T00:11:51.147Z,1018.34
2022-12-17T00:12:51.626Z,1018.32
2022-12-17T00:13:50.678Z,1018.40
2022-12-17T00:14:50.607Z,1018.41
2022-12-17T00:15:51.135Z,1018.42
2022-12-17T00:16:50.575Z,1018.44
2022-12-17T00:17:51.068Z,1018.45
2022-12-17T00:18:49.645Z,1018.47
2022-12-17T00:19:51.165Z,1018.51
2022-12-17T00:20:51.976Z,1018.55
2022-12-17T00:21:51.049Z,1018.55
2022-12-17T00:22:51.113Z,1018.59
2022-12-17T00:23:51.077Z,1018.60
2022-12-17T00:24:50.986Z,1018.55
2022-12-17T00:25:51.051Z,1018.62
2022-12-17T00:26:50.968Z,1018.67
2022-12-17T00:27:50.466Z,1018.63
2022-12-17T00:28:50.477Z,1018.64
2022-12-17T00:29:50.937Z,1018.69
2022-12-17T00:30:51.066Z,1018.61
2022-12-17T00:31:51.853Z,1018.68
2022-12-17T00:32:50.401Z,1018.63
2022-12-17T00:33:51.825Z,1018.67
2022-12-17T00:34:50.897Z,1018.64
2022-12-17T00:35:50.877Z,1018.64
2022-12-17T00:36:50.890Z,1018.67
2022-12-17T00:37:50.867Z,1018.67
2022-12-17T00:38:50.857Z,1018.61
2022-12-17T00:39:53.515Z,1018.62
2022-12-17T00:40:51.319Z,1018.61
2022-12-17T00:41:50.887Z,1018.58
2022-12-17T00:42:50.799Z,1018.57
2022-12-17T00:43:50.807Z,1018.63
2022-12-17T00:44:50.778Z,1018.59
2022-12-17T00:45:50.790Z,1018.55
2022-12-17T00:46:50.374Z,1018.62
2022-12-17T00:47:50.807Z,1018.66
2022-12-17T00:48:50.737Z,1018.69
2022-12-17T00:49:50.271Z,1018.67
2022-12-17T00:50:50.245Z,1018.64
2022-12-17T00:51:50.729Z,1018.61
2022-12-17T00:52:50.219Z,1018.64
2022-12-17T00:53:50.222Z,1018.62
2022-12-17T00:54:50.689Z,1018.57
2022-12-17T00:55:50.658Z,1018.58
2022-12-17T00:56:50.148Z,1018.64
2022-12-17T00:57:50.670Z,1018.64
2022-12-17T00:58:50.629Z,1018.67
2022-12-17T00:59:50.182Z,1018.68
2022-12-17T01:00:50.667Z,1018.68
2022-12-17T01:01:50.834Z,1018.75
2022-12-17T01:02:50.700Z,1018.70
2022-12-17T01:03:50.594Z,1018.72
2022-12-17T01:04:51.031Z,1018.77
2022-12-17T01:05:49.186Z,1018.74
2022-12-17T01:06:50.563Z,1018.69
2022-12-17T01:07:50.551Z,1018.77
2022-12-17T01:08:50.539Z,1018.73
2022-12-17T01:09:50.519Z,1018.75
2022-12-17T01:10:50.530Z,1018.74
2022-12-17T01:11:50.562Z,1018.81
2022-12-17T01:12:49.072Z,1018.85
2022-12-17T01:13:50.470Z,1018.84
2022-12-17T01:14:51.385Z,1018.84
2022-12-17T01:15:49.039Z,1018.82
2022-12-17T01:16:50.008Z,1018.87
2022-12-17T01:17:49.221Z,1018.89
2022-12-17T01:18:50.430Z,1018.90
2022-12-17T01:19:49.013Z,1018.89
2022-12-17T01:20:49.891Z,1018.88
2022-12-17T01:21:49.892Z,1018.93
2022-12-17T01:22:50.380Z,1018.92
2022-12-17T01:23:49.070Z,1018.96
2022-12-17T01:24:48.941Z,1018.97
2022-12-17T01:25:48.929Z,1019.01
2022-12-17T01:26:49.870Z,1018.98
2022-12-17T01:27:48.911Z,1018.99
2022-12-17T01:28:49.851Z,1019.00
2022-12-17T01:29:49.862Z,1019.00
2022-12-17T01:30:50.036Z,1019.01
2022-12-17T01:31:50.352Z,1019.05
2022-12-17T01:32:50.282Z,1019.05
2022-12-17T01:33:51.192Z,1019.10
2022-12-17T01:34:49.774Z,1019.10
2022-12-17T01:35:48.901Z,1019.08
2022-12-17T01:36:50.251Z,1019.11
2022-12-17T01:37:50.245Z,1019.11
2022-12-17T01:38:50.224Z,1019.12
2022-12-17T01:39:49.751Z,1019.21
2022-12-17T01:40:50.213Z,1019.20
2022-12-17T01:41:50.301Z,1019.21
2022-12-17T01:42:50.213Z,1019.24
2022-12-17T01:43:50.164Z,1019.24
2022-12-17T01:44:48.733Z,1019.21
2022-12-17T01:45:49.703Z,1019.22
2022-12-17T01:46:49.652Z,1019.17
2022-12-17T01:47:48.901Z,1019.15
2022-12-17T01:48:50.122Z,1019.15
2022-12-17T01:49:48.686Z,1019.14
2022-12-17T01:50:50.091Z,1019.25
2022-12-17T01:51:50.113Z,1019.21
2022-12-17T01:52:50.072Z,1019.30
2022-12-17T01:53:50.122Z,1019.30
2022-12-17T01:54:49.580Z,1019.25
2022-12-17T01:55:48.622Z,1019.25
2022-12-17T01:56:49.534Z,1019.26
2022-12-17T01:57:49.522Z,1019.28
2022-12-17T01:58:50.003Z,1019.29
2022-12-17T01:59:50.053Z,1019.28
2022-12-17T02:00:50.567Z,1019.28
2022-12-17T02:01:49.616Z,1019.25
2022-12-17T02:02:49.631Z,1019.24
2022-12-17T02:03:50.368Z,1019.28
2022-12-17T02:04:49.943Z,1019.28
2022-12-17T02:05:49.483Z,1019.30
2022-12-17T02:06:49.429Z,1019.32
2022-12-17T02:07:49.483Z,1019.37
2022-12-17T02:08:49.905Z,1019.38
2022-12-17T02:09:49.396Z,1019.31
2022-12-17T02:10:50.433Z,1019.31
2022-12-17T02:11:49.875Z,1019.35
2022-12-17T02:12:49.382Z,1019.35
2022-12-17T02:13:49.398Z,1019.39
2022-12-17T02:14:49.835Z,1019.37
2022-12-17T02:15:49.358Z,1019.33
2022-12-17T02:16:49.925Z,1019.36
2022-12-17T02:17:49.655Z,1019.35
2022-12-17T02:18:49.813Z,1019.36
2022-12-17T02:19:49.807Z,1019.36
2022-12-17T02:20:49.305Z,1019.39
2022-12-17T02:21:49.283Z,1019.42
2022-12-17T02:22:49.818Z,1019.39
2022-12-17T02:23:49.766Z,1019.39
2022-12-17T02:24:49.140Z,1019.35
2022-12-17T02:25:50.248Z,1019.30
2022-12-17T02:26:49.724Z,1019.38
2022-12-17T02:27:50.121Z,1019.40
2022-12-17T02:28:49.734Z,1019.37
2022-12-17T02:29:50.975Z,1019.39
2022-12-17T02:30:49.165Z,1019.44
2022-12-17T02:31:49.947Z,1019.39
2022-12-17T02:32:50.176Z,1019.39
2022-12-17T02:33:50.183Z,1019.44
2022-12-17T02:34:49.685Z,1019.41
2022-12-17T02:35:49.624Z,1019.39
2022-12-17T02:36:49.619Z,1019.42
2022-12-17T02:37:49.609Z,1019.46
2022-12-17T02:38:50.107Z,1019.40
2022-12-17T02:39:50.106Z,1019.40
2022-12-17T02:40:49.106Z,1019.44
2022-12-17T02:41:50.076Z,1019.43
2022-12-17T02:42:50.450Z,1019.44
2022-12-17T02:43:49.561Z,1019.48
2022-12-17T02:44:49.049Z,1019.42
2022-12-17T02:45:50.177Z,1019.43
2022-12-17T02:46:50.041Z,1019.43
2022-12-17T02:47:50.037Z,1019.43
2022-12-17T02:48:50.006Z,1019.47
2022-12-17T02:49:49.477Z,1019.49
2022-12-17T02:50:49.986Z,1019.46
2022-12-17T02:51:48.105Z,1019.50
2022-12-17T02:52:49.956Z,1019.42
2022-12-17T02:53:49.956Z,1019.45
2022-12-17T02:54:49.937Z,1019.41
2022-12-17T02:55:49.449Z,1019.45
2022-12-17T02:56:49.927Z,1019.47
2022-12-17T02:57:53.617Z,1019.43
2022-12-17T02:58:49.899Z,1019.41
2022-12-17T02:59:49.846Z,1019.43
2022-12-17T03:00:49.914Z,1019.45
2022-12-17T03:01:49.003Z,1019.46
2022-12-17T03:02:49.050Z,1019.46
2022-12-17T03:03:50.635Z,1019.48
2022-12-17T03:04:48.838Z,1019.52
2022-12-17T03:05:48.828Z,1019.59
2022-12-17T03:06:49.337Z,1019.61
2022-12-17T03:07:48.818Z,1019.60
2022-12-17T03:08:48.802Z,1019.54
2022-12-17T03:09:49.350Z,1019.54
2022-12-17T03:10:48.782Z,1019.57
2022-12-17T03:11:49.249Z,1019.53
2022-12-17T03:12:49.258Z,1019.54
2022-12-17T03:13:48.728Z,1019.54
2022-12-17T03:14:49.732Z,1019.52
2022-12-17T03:15:49.279Z,1019.52
2022-12-17T03:16:49.787Z,1019.57
2022-12-17T03:17:49.698Z,1019.54
2022-12-17T03:18:49.688Z,1019.58
2022-12-17T03:19:49.684Z,1019.51
2022-12-17T03:20:49.178Z,1019.58
2022-12-17T03:21:48.694Z,1019.58
2022-12-17T03:22:49.170Z,1019.57
2022-12-17T03:23:49.653Z,1019.59
2022-12-17T03:24:49.620Z,1019.56
2022-12-17T03:25:49.628Z,1019.61
2022-12-17T03:26:49.608Z,1019.57
2022-12-17T03:27:49.628Z,1019.55
2022-12-17T03:28:49.580Z,1019.52
2022-12-17T03:29:49.080Z,1019.55
2022-12-17T03:30:49.268Z,1019.53
2022-12-17T03:31:49.550Z,1019.56
2022-12-17T03:32:48.549Z,1019.50
2022-12-17T03:33:49.678Z,1019.55
2022-12-17T03:34:49.520Z,1019.57
2022-12-17T03:35:49.525Z,1019.56
2022-12-17T03:36:48.563Z,1019.57
2022-12-17T03:37:49.491Z,1019.53
2022-12-17T03:38:49.491Z,1019.52
2022-12-17T03:39:50.032Z,1019.56
2022-12-17T03:40:49.461Z,1019.55
2022-12-17T03:41:48.951Z,1019.59
2022-12-17T03:42:49.440Z,1019.59
2022-12-17T03:43:49.429Z,1019.61
2022-12-17T03:44:48.931Z,1019.60
2022-12-17T03:45:49.629Z,1019.60
2022-12-17T03:46:48.371Z,1019.54
2022-12-17T03:47:49.382Z,1019.50
2022-12-17T03:48:49.382Z,1019.52
2022-12-17T03:49:49.369Z,1019.55
2022-12-17T03:50:48.342Z,1019.49
2022-12-17T03:51:49.411Z,1019.52
2022-12-17T03:52:48.832Z,1019.65
2022-12-17T03:53:48.841Z,1019.57
2022-12-17T03:54:48.814Z,1019.63
2022-12-17T03:55:48.282Z,1019.61
2022-12-17T03:56:48.271Z,1019.61
2022-12-17T03:57:49.312Z,1019.59
2022-12-17T03:58:48.770Z,1019.60
2022-12-17T03:59:48.788Z,1019.62
2022-12-17T04:00:49.253Z,1019.64
2022-12-17T04:01:48.264Z,1019.62
2022-12-17T04:02:48.409Z,1019.66
2022-12-17T04:03:48.261Z,1019.65
2022-12-17T04:04:48.691Z,1019.67
2022-12-17T04:05:48.681Z,1019.70
2022-12-17T04:06:48.683Z,1019.67
2022-12-17T04:07:49.188Z,1019.68
2022-12-17T04:08:48.180Z,1019.67
2022-12-17T04:09:48.631Z,1019.70
2022-12-17T04:10:48.631Z,1019.66
2022-12-17T04:11:48.623Z,1019.64
2022-12-17T04:12:48.602Z,1019.65
2022-12-17T04:13:48.964Z,1019.60
2022-12-17T04:14:49.112Z,1019.59
2022-12-17T04:15:48.099Z,1019.58
2022-12-17T04:16:48.594Z,1019.58
2022-12-17T04:17:47.176Z,1019.60
2022-12-17T04:18:48.544Z,1019.62
2022-12-17T04:19:48.543Z,1019.60
2022-12-17T04:20:48.039Z,1019.67
2022-12-17T04:21:47.496Z,1019.61
2022-12-17T04:22:48.503Z,1019.64
2022-12-17T04:23:48.523Z,1019.66
2022-12-17T04:24:48.023Z,1019.65
2022-12-17T04:25:48.473Z,1019.67
2022-12-17T04:26:48.511Z,1019.69
2022-12-17T04:27:48.464Z,1019.65
2022-12-17T04:28:47.983Z,1019.73
2022-12-17T04:29:47.944Z,1019.69
2022-12-17T04:30:49.124Z,1019.72
2022-12-17T04:31:48.423Z,1019.74
2022-12-17T04:32:48.414Z,1019.68
2022-12-17T04:33:48.389Z,1019.73
2022-12-17T04:34:48.380Z,1019.78
2022-12-17T04:35:47.874Z,1019.78
2022-12-17T04:36:48.484Z,1019.75
2022-12-17T04:37:47.044Z,1019.78
2022-12-17T04:38:47.840Z,1019.78
2022-12-17T04:39:48.839Z,1019.81
2022-12-17T04:40:48.315Z,1019.81
2022-12-17T04:41:48.314Z,1019.80
2022-12-17T04:42:47.854Z,1019.79
2022-12-17T04:43:47.808Z,1019.81
2022-12-17T04:44:47.774Z,1019.83
2022-12-17T04:45:46.856Z,1019.81
2022-12-17T04:46:48.302Z,1019.89
2022-12-17T04:47:47.761Z,1019.87
2022-12-17T04:48:48.285Z,1019.87
2022-12-17T04:49:48.245Z,1019.90
2022-12-17T04:50:46.938Z,1019.90
2022-12-17T04:51:47.736Z,1019.97
2022-12-17T04:52:48.196Z,1019.94
2022-12-17T04:53:47.696Z,1019.93
2022-12-17T04:54:47.046Z,1019.96
2022-12-17T04:55:48.165Z,1019.96
2022-12-17T04:56:48.147Z,1019.97
2022-12-17T04:57:48.146Z,1019.93
2022-12-17T04:58:48.133Z,1019.93
2022-12-17T04:59:48.627Z,1019.98
2022-12-17T05:00:48.133Z,1019.96
2022-12-17T05:01:47.705Z,1020.01
2022-12-17T05:02:48.230Z,1020.02
2022-12-17T05:03:48.204Z,1020.04
2022-12-17T05:04:47.603Z,1019.99
2022-12-17T05:05:47.596Z,1020.01
2022-12-17T05:06:47.593Z,1020.04
2022-12-17T05:07:48.056Z,1020.04
2022-12-17T05:08:47.175Z,1020.02
2022-12-17T05:09:47.536Z,1020.03
2022-12-17T05:10:47.999Z,1020.03
2022-12-17T05:11:47.988Z,1020.02
2022-12-17T05:12:48.911Z,1020.00
2022-12-17T05:13:46.539Z,1020.02
2022-12-17T05:14:48.128Z,1019.97
2022-12-17T05:15:52.980Z,1020.02
2022-12-17T05:16:48.957Z,1020.01
2022-12-17T05:17:47.947Z,1019.99
2022-12-17T05:18:47.457Z,1020.02
2022-12-17T05:19:47.937Z,1020.01
2022-12-17T05:20:47.912Z,1020.03
2022-12-17T05:21:47.387Z,1020.08
2022-12-17T05:22:47.897Z,1020.12
2022-12-17T05:23:48.378Z,1020.13
2022-12-17T05:24:47.398Z,1020.10
2022-12-17T05:25:47.866Z,1020.16
2022-12-17T05:26:48.359Z,1020.11
2022-12-17T05:27:47.859Z,1020.14
2022-12-17T05:28:47.811Z,1020.13
2022-12-17T05:29:47.829Z,1020.15
2022-12-17T05:30:47.906Z,1020.11
2022-12-17T05:31:47.303Z,1020.13
2022-12-17T05:32:47.812Z,1020.12
2022-12-17T05:33:47.775Z,1020.12
2022-12-17T05:34:47.287Z,1020.13
2022-12-17T05:35:47.757Z,1020.15
2022-12-17T05:36:47.308Z,1020.15
2022-12-17T05:37:48.134Z,1020.21
2022-12-17T05:38:47.299Z,1020.19
2022-12-17T05:39:47.219Z,1020.21
2022-12-17T05:40:47.183Z,1020.23
2022-12-17T05:41:47.668Z,1020.17
2022-12-17T05:42:47.222Z,1020.23
2022-12-17T05:43:47.658Z,1020.25
2022-12-17T05:44:47.170Z,1020.27
2022-12-17T05:45:47.160Z,1020.31
2022-12-17T05:46:47.679Z,1020.30
2022-12-17T05:47:47.610Z,1020.29
2022-12-17T05:48:47.640Z,1020.28
2022-12-17T05:49:47.109Z,1020.27
2022-12-17T05:50:47.109Z,1020.25
2022-12-17T05:51:47.576Z,1020.23
2022-12-17T05:52:48.082Z,1020.24
2022-12-17T05:53:47.079Z,1020.23
2022-12-17T05:54:47.563Z,1020.24
2022-12-17T05:55:47.071Z,1020.26
2022-12-17T05:56:47.054Z,1020.26
2022-12-17T05:57:50.564Z,1020.22
2022-12-17T05:58:48.490Z,1020.27
2022-12-17T05:59:47.531Z,1020.31
2022-12-17T06:00:47.492Z,1020.32
2022-12-17T06:01:47.083Z,1020.33
2022-12-17T06:02:47.607Z,1020.32
2022-12-17T06:03:47.605Z,1020.34
2022-12-17T06:04:46.500Z,1020.31
2022-12-17T06:05:47.463Z,1020.29
2022-12-17T06:06:47.944Z,1020.35
2022-12-17T06:07:46.931Z,1020.31
2022-12-17T06:08:47.932Z,1020.32
2022-12-17T06:09:46.916Z,1020.32
2022-12-17T06:10:47.441Z,1020.36
2022-12-17T06:11:46.014Z,1020.36
2022-12-17T06:12:47.512Z,1020.38
2022-12-17T06:13:46.919Z,1020.40
2022-12-17T06:14:46.863Z,1020.45
2022-12-17T06:15:47.039Z,1020.45
2022-12-17T06:16:46.864Z,1020.48
2022-12-17T06:17:47.327Z,1020.46
2022-12-17T06:18:46.813Z,1020.47
2022-12-17T06:19:46.805Z,1020.46
2022-12-17T06:20:46.813Z,1020.48
2022-12-17T06:21:47.290Z,1020.50
2022-12-17T06:22:47.305Z,1020.51
2022-12-17T06:23:46.773Z,1020.54
2022-12-17T06:24:47.271Z,1020.55
2022-12-17T06:25:46.743Z,1020.57
2022-12-17T06:26:46.755Z,1020.58
2022-12-17T06:27:46.722Z,1020.58
2022-12-17T06:28:46.762Z,1020.55
2022-12-17T06:29:46.845Z,1020.58
2022-12-17T06:30:47.213Z,1020.57
2022-12-17T06:31:46.736Z,1020.60
2022-12-17T06:32:46.673Z,1020.59
2022-12-17T06:33:47.166Z,1020.60
2022-12-17T06:34:46.477Z,1020.59
2022-12-17T06:35:46.655Z,1020.62
2022-12-17T06:36:47.173Z,1020.66
2022-12-17T06:37:47.123Z,1020.69
2022-12-17T06:38:46.614Z,1020.69
2022-12-17T06:39:47.106Z,1020.67
2022-12-17T06:40:46.676Z,1020.72
2022-12-17T06:41:46.575Z,1020.69
2022-12-17T06:42:46.556Z,1020.72
2022-12-17T06:43:47.449Z,1020.73
2022-12-17T06:44:47.043Z,1020.66
2022-12-17T06:45:47.055Z,1020.68
2022-12-17T06:46:46.616Z,1020.68
2022-12-17T06:47:47.015Z,1020.69
2022-12-17T06:48:45.553Z,1020.67
2022-12-17T06:49:46.505Z,1020.75
2022-12-17T06:50:46.486Z,1020.75
2022-12-17T06:51:46.468Z,1020.76
2022-12-17T06:52:46.566Z,1020.71
2022-12-17T06:53:46.966Z,1020.70
2022-12-17T06:54:46.945Z,1020.66
2022-12-17T06:55:46.137Z,1020.68
2022-12-17T06:56:46.927Z,1020.68
2022-12-17T06:57:50.359Z,1020.72
2022-12-17T06:58:46.445Z,1020.71
2022-12-17T06:59:46.875Z,1020.72
2022-12-17T07:00:46.957Z,1020.73
2022-12-17T07:01:46.497Z,1020.72
2022-12-17T07:02:46.592Z,1020.77
2022-12-17T07:03:46.396Z,1020.74
2022-12-17T07:04:46.865Z,1020.82
2022-12-17T07:05:46.838Z,1020.86
2022-12-17T07:06:46.297Z,1020.83
2022-12-17T07:07:46.806Z,1020.87
2022-12-17T07:08:46.777Z,1020.85
2022-12-17T07:09:46.777Z,1020.84
2022-12-17T07:10:46.368Z,1020.84
2022-12-17T07:11:46.400Z,1020.83
2022-12-17T07:12:47.251Z,1020.89
2022-12-17T07:13:46.767Z,1020.88
2022-12-17T07:14:46.735Z,1020.89
2022-12-17T07:15:46.230Z,1020.94
2022-12-17T07:16:46.845Z,1020.93
2022-12-17T07:17:46.686Z,1020.92
2022-12-17T07:18:46.677Z,1020.96
2022-12-17T07:19:46.203Z,1020.95
2022-12-17T07:20:46.708Z,1020.99
2022-12-17T07:21:46.167Z,1020.94
2022-12-17T07:22:46.668Z,1021.01
2022-12-17T07:23:46.167Z,1020.95
2022-12-17T07:24:47.535Z,1020.98
2022-12-17T07:25:46.361Z,1020.95
2022-12-17T07:26:46.089Z,1021.00
2022-12-17T07:27:46.597Z,1021.03
2022-12-17T07:28:46.134Z,1021.04
2022-12-17T07:29:46.578Z,1021.06
2022-12-17T07:30:46.897Z,1021.09
2022-12-17T07:31:46.131Z,1021.10
2022-12-17T07:32:46.568Z,1021.04
2022-12-17T07:33:46.038Z,1021.05
2022-12-17T07:34:46.569Z,1021.10
2022-12-17T07:35:46.032Z,1021.10
2022-12-17T07:36:46.519Z,1021.07
2022-12-17T07:37:46.508Z,1021.12
2022-12-17T07:38:45.972Z,1021.14
2022-12-17T07:39:45.145Z,1021.22
2022-12-17T07:40:46.022Z,1021.21
2022-12-17T07:41:45.984Z,1021.24
2022-12-17T07:42:46.961Z,1021.20
2022-12-17T07:43:51.212Z,1021.25
2022-12-17T07:44:47.431Z,1021.21
2022-12-17T07:45:46.447Z,1021.25
2022-12-17T07:46:45.939Z,1021.26
2022-12-17T07:47:46.369Z,1021.32
2022-12-17T07:48:46.370Z,1021.33
2022-12-17T07:49:45.941Z,1021.31
2022-12-17T07:50:46.871Z,1021.36
2022-12-17T07:51:45.830Z,1021.38
2022-12-17T07:52:45.413Z,1021.39
2022-12-17T07:53:46.830Z,1021.48
2022-12-17T07:54:45.817Z,1021.46
2022-12-17T07:55:45.831Z,1021.40
2022-12-17T07:56:45.790Z,1021.46
2022-12-17T07:57:46.782Z,1021.47
2022-12-17T07:58:45.791Z,1021.47
2022-12-17T07:59:46.250Z,1021.48
2022-12-17T08:00:49.248Z,1021.58
2022-12-17T08:01:45.178Z,1021.56
2022-12-17T08:02:46.418Z,1021.58
2022-12-17T08:03:44.926Z,1021.50
2022-12-17T08:04:46.243Z,1021.63
2022-12-17T08:05:45.682Z,1021.62
2022-12-17T08:06:46.212Z,1021.73
2022-12-17T08:07:44.752Z,1021.69
2022-12-17T08:08:45.652Z,1021.77
2022-12-17T08:09:46.133Z,1021.79
2022-12-17T08:10:45.663Z,1021.77
2022-12-17T08:11:46.122Z,1021.75
2022-12-17T08:12:45.606Z,1021.76
2022-12-17T08:13:46.133Z,1021.71
2022-12-17T08:14:45.593Z,1021.72
2022-12-17T08:15:46.072Z,1021.76
2022-12-17T08:16:46.185Z,1021.70
2022-12-17T08:17:45.552Z,1021.72
2022-12-17T08:18:46.053Z,1021.68
2022-12-17T08:19:46.064Z,1021.75
2022-12-17T08:20:46.024Z,1021.83
2022-12-17T08:21:46.035Z,1021.84
2022-12-17T08:22:46.055Z,1021.84
2022-12-17T08:23:45.503Z,1021.79
2022-12-17T08:24:45.485Z,1021.78
2022-12-17T08:25:45.475Z,1021.77
2022-12-17T08:26:48.054Z,1021.73
2022-12-17T08:27:45.966Z,1021.72
2022-12-17T08:28:52.619Z,1021.74
2022-12-17T08:29:46.455Z,1021.68
2022-12-17T08:30:44.527Z,1021.68
2022-12-17T08:31:45.904Z,1021.70
2022-12-17T08:32:45.894Z,1021.67
2022-12-17T08:33:45.885Z,1021.63
2022-12-17T08:34:47.308Z,1021.69
2022-12-17T08:35:45.864Z,1021.74
2022-12-17T08:36:45.355Z,1021.83
2022-12-17T08:37:45.344Z,1021.76
2022-12-17T08:38:45.834Z,1021.82
2022-12-17T08:39:45.825Z,1021.82
2022-12-17T08:40:45.845Z,1021.83
2022-12-17T08:41:46.611Z,1021.81
2022-12-17T08:42:46.325Z,1021.85
2022-12-17T08:43:45.316Z,1021.77
2022-12-17T08:44:45.776Z,1021.84
2022-12-17T08:45:45.306Z,1021.80
2022-12-17T08:46:45.295Z,1021.82
2022-12-17T08:47:44.316Z,1021.86
2022-12-17T08:48:44.316Z,1021.90
2022-12-17T08:49:45.226Z,1021.89
2022-12-17T08:50:45.708Z,1021.88
2022-12-17T08:51:45.198Z,1021.90
2022-12-17T08:52:45.806Z,1021.88
2022-12-17T08:53:45.510Z,1021.85
2022-12-17T08:54:45.180Z,1021.86
2022-12-17T08:55:45.679Z,1021.87
2022-12-17T08:56:45.656Z,1021.83
2022-12-17T08:57:45.138Z,1021.86
2022-12-17T08:58:44.228Z,1021.92
2022-12-17T08:59:44.185Z,1021.96
2022-12-17T09:00:45.619Z,1021.95
2022-12-17T09:01:45.663Z,1021.98
2022-12-17T09:02:45.780Z,1022.02
2022-12-17T09:03:45.699Z,1022.01
2022-12-17T09:04:45.128Z,1021.98
2022-12-17T09:05:45.078Z,1022.00
2022-12-17T09:06:45.549Z,1022.00
2022-12-17T09:07:45.468Z,1021.98
2022-12-17T09:08:45.017Z,1022.00
2022-12-17T09:09:45.008Z,1021.99
2022-12-17T09:10:45.064Z,1021.96
2022-12-17T09:11:45.037Z,1021.97
2022-12-17T09:12:45.087Z,1021.94
2022-12-17T09:13:46.264Z,1021.96
2022-12-17T09:14:45.026Z,1022.01
2022-12-17T09:15:44.971Z,1022.05
2022-12-17T09:16:45.605Z,1022.04
2022-12-17T09:17:44.919Z,1022.06
2022-12-17T09:18:45.164Z,1022.05
2022-12-17T09:19:45.063Z,1022.10
2022-12-17T09:20:45.792Z,1022.09
2022-12-17T09:21:45.455Z,1022.10
2022-12-17T09:22:44.115Z,1022.09
2022-12-17T09:23:45.115Z,1022.13
2022-12-17T09:24:45.607Z,1022.13
2022-12-17T09:25:44.292Z,1022.12
2022-12-17T09:26:44.850Z,1022.11
2022-12-17T09:27:44.829Z,1022.16
2022-12-17T09:28:45.429Z,1022.13
2022-12-17T09:29:44.819Z,1022.18
2022-12-17T09:30:45.316Z,1022.21
2022-12-17T09:31:44.802Z,1022.17
2022-12-17T09:32:45.261Z,1022.19
2022-12-17T09:33:44.905Z,1022.18
2022-12-17T09:34:45.806Z,1022.18
2022-12-17T09:35:45.282Z,1022.17
2022-12-17T09:36:50.902Z,1022.17
2022-12-17T09:37:46.031Z,1022.12
2022-12-17T09:38:44.731Z,1022.15
2022-12-17T09:39:43.758Z,1022.19
2022-12-17T09:40:45.751Z,1022.16
2022-12-17T09:41:44.680Z,1022.23
2022-12-17T09:42:50.026Z,1022.25
2022-12-17T09:43:46.141Z,1022.20
2022-12-17T09:44:44.671Z,1022.23
2022-12-17T09:45:45.153Z,1022.22
2022-12-17T09:46:45.170Z,1022.23
2022-12-17T09:47:45.122Z,1022.25
2022-12-17T09:48:45.094Z,1022.26
2022-12-17T09:49:45.086Z,1022.27
2022-12-17T09:50:44.581Z,1022.30
2022-12-17T09:51:44.592Z,1022.32
2022-12-17T09:52:45.121Z,1022.33
2022-12-17T09:53:44.541Z,1022.32
2022-12-17T09:54:44.571Z,1022.28
2022-12-17T09:55:44.517Z,1022.35
2022-12-17T09:56:43.600Z,1022.34
2022-12-17T09:57:45.004Z,1022.31
2022-12-17T09:58:44.542Z,1022.35
2022-12-17T09:59:44.963Z,1022.33
2022-12-17T10:00:44.970Z,1022.34
2022-12-17T10:01:45.067Z,1022.34
2022-12-17T10:02:45.163Z,1022.35
2022-12-17T10:03:43.646Z,1022.39
2022-12-17T10:04:44.534Z,1022.39
2022-12-17T10:05:44.905Z,1022.42
2022-12-17T10:06:44.902Z,1022.46
2022-12-17T10:07:44.394Z,1022.39
2022-12-17T10:08:44.864Z,1022.46
2022-12-17T10:09:44.373Z,1022.46
2022-12-17T10:10:44.920Z,1022.44
2022-12-17T10:11:43.424Z,1022.45
2022-12-17T10:12:44.335Z,1022.42
2022-12-17T10:13:44.823Z,1022.44
2022-12-17T10:14:43.394Z,1022.40
2022-12-17T10:15:44.357Z,1022.41
2022-12-17T10:16:44.913Z,1022.44
2022-12-17T10:17:44.376Z,1022.44
2022-12-17T10:18:44.796Z,1022.49
2022-12-17T10:19:44.756Z,1022.48
2022-12-17T10:20:44.734Z,1022.45
2022-12-17T10:21:44.233Z,1022.53
2022-12-17T10:22:43.343Z,1022.53
2022-12-17T10:23:43.297Z,1022.54
2022-12-17T10:24:44.235Z,1022.59
2022-12-17T10:25:44.685Z,1022.56
2022-12-17T10:26:44.194Z,1022.56
2022-12-17T10:27:44.676Z,1022.54
2022-12-17T10:28:44.684Z,1022.54
2022-12-17T10:29:48.091Z,1022.49
2022-12-17T10:30:44.750Z,1022.51
2022-12-17T10:31:43.229Z,1022.48
2022-12-17T10:32:44.147Z,1022.46
2022-12-17T10:33:44.126Z,1022.49
2022-12-17T10:34:44.625Z,1022.47
2022-12-17T10:35:44.576Z,1022.43
2022-12-17T10:36:43.385Z,1022.45
2022-12-17T10:37:44.566Z,1022.48
2022-12-17T10:38:44.084Z,1022.48
2022-12-17T10:39:43.127Z,1022.43
2022-12-17T10:40:43.146Z,1022.51
2022-12-17T10:41:45.457Z,1022.48
2022-12-17T10:42:43.095Z,1022.47
2022-12-17T10:43:44.508Z,1022.47
2022-12-17T10:44:44.027Z,1022.50
2022-12-17T10:45:43.067Z,1022.51
2022-12-17T10:46:43.264Z,1022.54
2022-12-17T10:47:43.088Z,1022.50
2022-12-17T10:48:43.953Z,1022.47
2022-12-17T10:49:43.967Z,1022.46
2022-12-17T10:50:43.930Z,1022.46
2022-12-17T10:51:42.997Z,1022.47
2022-12-17T10:52:43.968Z,1022.49
2022-12-17T10:53:44.407Z,1022.48
2022-12-17T10:54:48.778Z,1022.48
2022-12-17T10:55:44.930Z,1022.50
2022-12-17T10:56:44.376Z,1022.52
2022-12-17T10:57:42.955Z,1022.48
2022-12-17T10:58:44.408Z,1022.52
2022-12-17T10:59:44.368Z,1022.53
2022-12-17T11:00:49.428Z,1022.55
2022-12-17T11:01:44.947Z,1022.48
2022-12-17T11:02:44.531Z,1022.49
2022-12-17T11:03:42.998Z,1022.51
2022-12-17T11:04:44.369Z,1022.53
2022-12-17T11:05:44.290Z,1022.53
2022-12-17T11:06:44.270Z,1022.63
2022-12-17T11:07:44.247Z,1022.57
2022-12-17T11:08:44.258Z,1022.59
2022-12-17T11:09:43.001Z,1022.58
2022-12-17T11:10:44.300Z,1022.60
2022-12-17T11:11:44.125Z,1022.56
2022-12-17T11:12:44.210Z,1022.62
2022-12-17T11:13:44.199Z,1022.57
2022-12-17T11:14:44.190Z,1022.62
2022-12-17T11:15:44.228Z,1022.58
2022-12-17T11:16:43.786Z,1022.63
2022-12-17T11:17:43.683Z,1022.62
2022-12-17T11:18:43.666Z,1022.59
2022-12-17T11:19:43.648Z,1022.60
2022-12-17T11:20:44.145Z,1022.61
2022-12-17T11:21:42.688Z,1022.59
2022-12-17T11:22:43.679Z,1022.56
2022-12-17T11:23:44.090Z,1022.59
2022-12-17T11:24:43.597Z,1022.61
2022-12-17T11:25:44.051Z,1022.62
2022-12-17T11:26:44.049Z,1022.71
2022-12-17T11:27:44.050Z,1022.67
2022-12-17T11:28:43.580Z,1022.67
2022-12-17T11:29:44.019Z,1022.68
2022-12-17T11:30:44.058Z,1022.65
2022-12-17T11:31:43.558Z,1022.69
2022-12-17T11:32:44.002Z,1022.70
2022-12-17T11:33:44.492Z,1022.68
2022-12-17T11:34:44.011Z,1022.70
2022-12-17T11:35:42.530Z,1022.75
2022-12-17T11:36:43.691Z,1022.76
2022-12-17T11:37:43.941Z,1022.73
2022-12-17T11:38:43.926Z,1022.72
2022-12-17T11:39:42.501Z,1022.70
2022-12-17T11:40:43.963Z,1022.72
2022-12-17T11:41:43.905Z,1022.74
2022-12-17T11:42:43.911Z,1022.83
2022-12-17T11:43:43.395Z,1022.75
2022-12-17T11:44:43.873Z,1022.79
2022-12-17T11:45:43.372Z,1022.79
2022-12-17T11:46:43.958Z,1022.78
2022-12-17T11:47:44.102Z,1022.75
2022-12-17T11:48:43.852Z,1022.80
2022-12-17T11:49:43.313Z,1022.78
2022-12-17T11:50:43.822Z,1022.78
2022-12-17T11:51:42.373Z,1022.80
2022-12-17T11:52:43.850Z,1022.78
2022-12-17T11:53:42.352Z,1022.76
2022-12-17T11:54:42.383Z,1022.75
2022-12-17T11:55:43.249Z,1022.70
2022-12-17T11:56:43.260Z,1022.69
2022-12-17T11:57:42.315Z,1022.74
2022-12-17T11:58:43.253Z,1022.70
2022-12-17T11:59:49.340Z,1022.66
2022-12-17T12:00:43.264Z,1022.66
2022-12-17T12:01:43.234Z,1022.60
2022-12-17T12:02:43.411Z,1022.64
2022-12-17T12:03:43.319Z,1022.59
2022-12-17T12:04:43.274Z,1022.64
2022-12-17T12:05:43.154Z,1022.62